Church Street, Georgia
Current Conditions -  °F | °C
As of 3:52 PM on Friday 24 Oct 2014 (Local Time) from KATL Reporting Station
Few Clouds Few Clouds  
Wind Chill: 73°   Ceiling: Unl
Heat Index: 73°   Visibility: 10mi
Dew Point: 42°   Wind: 5mph
Humidity: 33%   Direction: NA
Pressure: 30.01"   Gusts: NA
Location:  33.559°N, 84.4436°W
Report Text: KATL 241952Z VRB04KT 10SM FEW150 23/06 A3001 RMK AO2 SLP160 T02280056
Loading
Personal Weather Stations






























Interactive Weather Map
Tropical Storm Tracking
New forecast layout! Learn more

10-Day Weather Forecast

Advertisements
Track Severe Weather on mobile